sensor_id;sensor_type;location;lat;lon;timestamp;temperature;humidity
61591;DHT22;71994;52.410;-1.966;2024-03-06T00:01:06;16.00;50.30
61591;DHT22;71994;52.410;-1.966;2024-03-06T00:04:15;16.00;50.20
61591;DHT22;71994;52.410;-1.966;2024-03-06T00:07:24;15.90;50.30
61591;DHT22;71994;52.410;-1.966;2024-03-06T00:10:32;15.90;50.20
61591;DHT22;71994;52.410;-1.966;2024-03-06T00:13:39;15.90;49.80
61591;DHT22;71994;52.410;-1.966;2024-03-06T00:16:45;15.80;50.00
61591;DHT22;71994;52.410;-1.966;2024-03-06T00:19:53;15.80;50.20
61591;DHT22;71994;52.410;-1.966;2024-03-06T00:23:03;15.80;49.90
61591;DHT22;71994;52.410;-1.966;2024-03-06T00:26:10;15.80;49.90
61591;DHT22;71994;52.410;-1.966;2024-03-06T00:29:19;15.80;50.00
61591;DHT22;71994;52.410;-1.966;2024-03-06T00:32:25;15.80;50.00
61591;DHT22;71994;52.410;-1.966;2024-03-06T00:35:32;15.80;50.00
61591;DHT22;71994;52.410;-1.966;2024-03-06T00:38:41;15.80;49.80
61591;DHT22;71994;52.410;-1.966;2024-03-06T00:41:47;15.80;49.90
61591;DHT22;71994;52.410;-1.966;2024-03-06T00:44:53;15.70;49.90
61591;DHT22;71994;52.410;-1.966;2024-03-06T00:47:59;15.70;49.80
61591;DHT22;71994;52.410;-1.966;2024-03-06T00:51:06;15.70;49.90
61591;DHT22;71994;52.410;-1.966;2024-03-06T00:54:15;15.70;49.80
61591;DHT22;71994;52.410;-1.966;2024-03-06T00:57:25;15.70;49.80
61591;DHT22;71994;52.410;-1.966;2024-03-06T01:00:33;15.70;49.90
61591;DHT22;71994;52.410;-1.966;2024-03-06T01:03:39;15.60;50.00
61591;DHT22;71994;52.410;-1.966;2024-03-06T01:06:45;15.60;49.70
61591;DHT22;71994;52.410;-1.966;2024-03-06T01:10:00;15.60;49.80
61591;DHT22;71994;52.410;-1.966;2024-03-06T01:13:07;15.60;49.70
61591;DHT22;71994;52.410;-1.966;2024-03-06T01:16:14;15.60;49.70
61591;DHT22;71994;52.410;-1.966;2024-03-06T01:19:20;15.60;49.70
61591;DHT22;71994;52.410;-1.966;2024-03-06T01:22:26;15.60;49.90
61591;DHT22;71994;52.410;-1.966;2024-03-06T01:25:35;15.50;49.70
61591;DHT22;71994;52.410;-1.966;2024-03-06T01:28:42;15.60;49.80
61591;DHT22;71994;52.410;-1.966;2024-03-06T01:31:51;15.50;49.70
61591;DHT22;71994;52.410;-1.966;2024-03-06T01:34:57;15.50;49.90
61591;DHT22;71994;52.410;-1.966;2024-03-06T01:38:04;15.50;49.80
61591;DHT22;71994;52.410;-1.966;2024-03-06T01:41:15;15.50;49.90
61591;DHT22;71994;52.410;-1.966;2024-03-06T01:44:21;15.50;49.80
61591;DHT22;71994;52.410;-1.966;2024-03-06T01:47:28;15.50;49.80
61591;DHT22;71994;52.410;-1.966;2024-03-06T01:50:37;15.50;49.80
61591;DHT22;71994;52.410;-1.966;2024-03-06T01:53:43;15.50;49.80
61591;DHT22;71994;52.410;-1.966;2024-03-06T01:56:53;15.40;49.60
61591;DHT22;71994;52.410;-1.966;2024-03-06T02:00:06;15.40;49.70
61591;DHT22;71994;52.410;-1.966;2024-03-06T02:03:17;15.40;49.60
61591;DHT22;71994;52.410;-1.966;2024-03-06T02:06:25;15.40;49.60
61591;DHT22;71994;52.410;-1.966;2024-03-06T02:09:32;15.40;49.70
61591;DHT22;71994;52.410;-1.966;2024-03-06T02:12:41;15.40;49.60
61591;DHT22;71994;52.410;-1.966;2024-03-06T02:15:48;15.40;49.60
61591;DHT22;71994;52.410;-1.966;2024-03-06T02:18:55;15.40;49.60
61591;DHT22;71994;52.410;-1.966;2024-03-06T02:22:05;15.40;49.70
61591;DHT22;71994;52.410;-1.966;2024-03-06T02:25:12;15.30;49.60
61591;DHT22;71994;52.410;-1.966;2024-03-06T02:28:18;15.30;49.40
61591;DHT22;71994;52.410;-1.966;2024-03-06T02:31:25;15.30;49.60
61591;DHT22;71994;52.410;-1.966;2024-03-06T02:34:31;15.30;49.70
61591;DHT22;71994;52.410;-1.966;2024-03-06T02:37:46;15.30;49.40
61591;DHT22;71994;52.410;-1.966;2024-03-06T02:40:53;15.30;49.50
61591;DHT22;71994;52.410;-1.966;2024-03-06T02:43:59;15.20;49.60
61591;DHT22;71994;52.410;-1.966;2024-03-06T02:47:05;15.20;49.60
61591;DHT22;71994;52.410;-1.966;2024-03-06T02:50:14;15.20;49.50
61591;DHT22;71994;52.410;-1.966;2024-03-06T02:53:24;15.20;49.50
61591;DHT22;71994;52.410;-1.966;2024-03-06T02:56:34;15.20;49.50
61591;DHT22;71994;52.410;-1.966;2024-03-06T02:59:42;15.20;49.50
61591;DHT22;71994;52.410;-1.966;2024-03-06T03:02:49;15.20;49.50
61591;DHT22;71994;52.410;-1.966;2024-03-06T03:05:55;15.20;49.40
61591;DHT22;71994;52.410;-1.966;2024-03-06T03:09:05;15.20;49.30
61591;DHT22;71994;52.410;-1.966;2024-03-06T03:12:15;15.30;49.40
61591;DHT22;71994;52.410;-1.966;2024-03-06T03:15:21;15.20;49.20
61591;DHT22;71994;52.410;-1.966;2024-03-06T03:18:28;15.20;49.20
61591;DHT22;71994;52.410;-1.966;2024-03-06T03:21:35;15.20;49.20
61591;DHT22;71994;52.410;-1.966;2024-03-06T03:24:45;15.20;49.30
61591;DHT22;71994;52.410;-1.966;2024-03-06T03:27:51;15.30;49.30
61591;DHT22;71994;52.410;-1.966;2024-03-06T03:30:58;15.20;49.20
61591;DHT22;71994;52.410;-1.966;2024-03-06T03:34:05;15.30;49.30
61591;DHT22;71994;52.410;-1.966;2024-03-06T03:37:17;15.30;49.60
61591;DHT22;71994;52.410;-1.966;2024-03-06T03:40:28;15.40;49.30
61591;DHT22;71994;52.410;-1.966;2024-03-06T03:43:36;15.40;49.30
61591;DHT22;71994;52.410;-1.966;2024-03-06T03:46:42;15.40;49.20
61591;DHT22;71994;52.410;-1.966;2024-03-06T03:49:50;15.50;49.20
61591;DHT22;71994;52.410;-1.966;2024-03-06T03:53:00;15.50;49.10
61591;DHT22;71994;52.410;-1.966;2024-03-06T03:56:09;15.50;49.00
61591;DHT22;71994;52.410;-1.966;2024-03-06T03:59:19;15.50;49.00
61591;DHT22;71994;52.410;-1.966;2024-03-06T04:02:26;15.50;49.00
61591;DHT22;71994;52.410;-1.966;2024-03-06T04:05:33;15.50;48.90
61591;DHT22;71994;52.410;-1.966;2024-03-06T04:08:40;15.40;49.00
61591;DHT22;71994;52.410;-1.966;2024-03-06T04:11:49;15.50;48.90
61591;DHT22;71994;52.410;-1.966;2024-03-06T04:14:56;15.50;48.90
61591;DHT22;71994;52.410;-1.966;2024-03-06T04:18:04;15.40;48.90
61591;DHT22;71994;52.410;-1.966;2024-03-06T04:21:11;15.40;48.90
61591;DHT22;71994;52.410;-1.966;2024-03-06T04:24:18;15.50;48.90
61591;DHT22;71994;52.410;-1.966;2024-03-06T04:27:27;15.40;48.90
61591;DHT22;71994;52.410;-1.966;2024-03-06T04:30:34;15.50;49.00
61591;DHT22;71994;52.410;-1.966;2024-03-06T04:33:41;15.40;48.90
61591;DHT22;71994;52.410;-1.966;2024-03-06T04:36:47;15.40;49.10
61591;DHT22;71994;52.410;-1.966;2024-03-06T04:39:56;15.40;49.10
61591;DHT22;71994;52.410;-1.966;2024-03-06T04:43:06;15.40;49.00
61591;DHT22;71994;52.410;-1.966;2024-03-06T04:46:13;15.40;49.00
61591;DHT22;71994;52.410;-1.966;2024-03-06T04:49:20;15.40;49.00
61591;DHT22;71994;52.410;-1.966;2024-03-06T04:52:26;15.30;49.10
61591;DHT22;71994;52.410;-1.966;2024-03-06T04:55:35;15.30;49.00
61591;DHT22;71994;52.410;-1.966;2024-03-06T04:58:47;15.30;49.00
61591;DHT22;71994;52.410;-1.966;2024-03-06T05:01:57;15.30;48.90
61591;DHT22;71994;52.410;-1.966;2024-03-06T05:05:07;15.30;49.00
61591;DHT22;71994;52.410;-1.966;2024-03-06T05:08:17;15.30;49.00
61591;DHT22;71994;52.410;-1.966;2024-03-06T05:11:23;15.30;49.00
61591;DHT22;71994;52.410;-1.966;2024-03-06T05:14:33;15.30;48.90
61591;DHT22;71994;52.410;-1.966;2024-03-06T05:17:40;15.30;48.90
61591;DHT22;71994;52.410;-1.966;2024-03-06T05:20:46;15.30;49.00
61591;DHT22;71994;52.410;-1.966;2024-03-06T05:23:53;15.30;49.00
61591;DHT22;71994;52.410;-1.966;2024-03-06T05:26:59;15.30;49.10
61591;DHT22;71994;52.410;-1.966;2024-03-06T05:30:09;15.30;49.20
61591;DHT22;71994;52.410;-1.966;2024-03-06T05:33:21;15.30;49.10
61591;DHT22;71994;52.410;-1.966;2024-03-06T05:36:28;15.30;49.00
61591;DHT22;71994;52.410;-1.966;2024-03-06T05:39:34;15.20;49.00
61591;DHT22;71994;52.410;-1.966;2024-03-06T05:42:43;15.30;49.00
61591;DHT22;71994;52.410;-1.966;2024-03-06T05:45:54;15.30;49.00
61591;DHT22;71994;52.410;-1.966;2024-03-06T05:49:01;15.30;49.00
61591;DHT22;71994;52.410;-1.966;2024-03-06T05:52:07;15.30;49.10
61591;DHT22;71994;52.410;-1.966;2024-03-06T05:55:14;15.30;49.10
61591;DHT22;71994;52.410;-1.966;2024-03-06T05:58:20;15.40;49.10
61591;DHT22;71994;52.410;-1.966;2024-03-06T06:01:29;15.40;49.10
61591;DHT22;71994;52.410;-1.966;2024-03-06T06:04:38;15.40;49.00
61591;DHT22;71994;52.410;-1.966;2024-03-06T06:07:45;15.40;49.10
61591;DHT22;71994;52.410;-1.966;2024-03-06T06:10:52;15.40;49.10
61591;DHT22;71994;52.410;-1.966;2024-03-06T06:13:58;15.40;49.10
61591;DHT22;71994;52.410;-1.966;2024-03-06T06:17:08;15.40;49.00
61591;DHT22;71994;52.410;-1.966;2024-03-06T06:20:16;15.40;48.90
61591;DHT22;71994;52.410;-1.966;2024-03-06T06:23:25;15.40;48.90
61591;DHT22;71994;52.410;-1.966;2024-03-06T06:26:31;15.50;48.90
61591;DHT22;71994;52.410;-1.966;2024-03-06T06:29:38;15.40;48.80
61591;DHT22;71994;52.410;-1.966;2024-03-06T06:32:49;15.40;48.80
61591;DHT22;71994;52.410;-1.966;2024-03-06T06:35:56;15.40;48.90
61591;DHT22;71994;52.410;-1.966;2024-03-06T06:39:02;15.40;48.80
61591;DHT22;71994;52.410;-1.966;2024-03-06T06:42:09;15.40;48.90
61591;DHT22;71994;52.410;-1.966;2024-03-06T06:45:16;15.40;48.80
61591;DHT22;71994;52.410;-1.966;2024-03-06T06:48:26;15.40;48.90
61591;DHT22;71994;52.410;-1.966;2024-03-06T06:51:32;15.30;48.90
61591;DHT22;71994;52.410;-1.966;2024-03-06T06:54:38;15.30;49.00
61591;DHT22;71994;52.410;-1.966;2024-03-06T06:57:47;15.30;48.90
61591;DHT22;71994;52.410;-1.966;2024-03-06T07:00:54;15.30;49.00
61591;DHT22;71994;52.410;-1.966;2024-03-06T07:04:03;15.30;48.90
61591;DHT22;71994;52.410;-1.966;2024-03-06T07:07:10;15.30;48.80
61591;DHT22;71994;52.410;-1.966;2024-03-06T07:10:17;15.30;49.00
61591;DHT22;71994;52.410;-1.966;2024-03-06T07:13:23;15.30;49.00
61591;DHT22;71994;52.410;-1.966;2024-03-06T07:16:32;15.30;49.00
61591;DHT22;71994;52.410;-1.966;2024-03-06T07:20:01;15.30;48.90
61591;DHT22;71994;52.410;-1.966;2024-03-06T07:23:08;15.20;49.00
61591;DHT22;71994;52.410;-1.966;2024-03-06T07:26:21;15.20;49.00
61591;DHT22;71994;52.410;-1.966;2024-03-06T07:29:28;15.20;49.00
61591;DHT22;71994;52.410;-1.966;2024-03-06T07:32:39;15.20;49.20
61591;DHT22;71994;52.410;-1.966;2024-03-06T07:35:51;15.30;49.40
61591;DHT22;71994;52.410;-1.966;2024-03-06T07:39:02;15.40;49.30
61591;DHT22;71994;52.410;-1.966;2024-03-06T07:42:11;15.50;48.90
61591;DHT22;71994;52.410;-1.966;2024-03-06T07:45:18;15.70;48.70
61591;DHT22;71994;52.410;-1.966;2024-03-06T07:48:24;15.80;48.30
61591;DHT22;71994;52.410;-1.966;2024-03-06T07:51:34;16.00;48.50
61591;DHT22;71994;52.410;-1.966;2024-03-06T07:54:43;16.00;48.50
61591;DHT22;71994;52.410;-1.966;2024-03-06T07:57:49;16.10;48.60
61591;DHT22;71994;52.410;-1.966;2024-03-06T08:00:55;16.10;48.60
61591;DHT22;71994;52.410;-1.966;2024-03-06T08:04:04;16.30;48.70
61591;DHT22;71994;52.410;-1.966;2024-03-06T08:07:13;16.40;48.60
61591;DHT22;71994;52.410;-1.966;2024-03-06T08:10:19;16.50;49.20
61591;DHT22;71994;52.410;-1.966;2024-03-06T08:13:32;16.60;49.00
61591;DHT22;71994;52.410;-1.966;2024-03-06T08:16:40;16.70;49.20
61591;DHT22;71994;52.410;-1.966;2024-03-06T08:19:49;16.80;49.40
61591;DHT22;71994;52.410;-1.966;2024-03-06T08:22:58;17.00;49.40
61591;DHT22;71994;52.410;-1.966;2024-03-06T08:26:05;17.10;49.30
61591;DHT22;71994;52.410;-1.966;2024-03-06T08:29:13;17.10;49.20
61591;DHT22;71994;52.410;-1.966;2024-03-06T08:32:20;17.20;49.20
61591;DHT22;71994;52.410;-1.966;2024-03-06T08:35:30;17.30;48.90
61591;DHT22;71994;52.410;-1.966;2024-03-06T08:38:40;17.30;48.70
61591;DHT22;71994;52.410;-1.966;2024-03-06T08:41:49;17.40;48.60
61591;DHT22;71994;52.410;-1.966;2024-03-06T08:44:56;17.40;48.50
61591;DHT22;71994;52.410;-1.966;2024-03-06T08:48:21;17.50;48.50
61591;DHT22;71994;52.410;-1.966;2024-03-06T08:51:27;17.50;48.40
61591;DHT22;71994;52.410;-1.966;2024-03-06T08:54:40;17.60;48.40
61591;DHT22;71994;52.410;-1.966;2024-03-06T08:57:47;17.60;48.10
61591;DHT22;71994;52.410;-1.966;2024-03-06T09:00:55;17.50;47.90
61591;DHT22;71994;52.410;-1.966;2024-03-06T09:04:02;17.60;47.90
61591;DHT22;71994;52.410;-1.966;2024-03-06T09:07:10;17.50;47.90
61591;DHT22;71994;52.410;-1.966;2024-03-06T09:10:20;17.50;47.90
61591;DHT22;71994;52.410;-1.966;2024-03-06T09:13:29;17.50;47.90
61591;DHT22;71994;52.410;-1.966;2024-03-06T09:16:37;17.40;48.00
61591;DHT22;71994;52.410;-1.966;2024-03-06T09:19:46;17.40;48.10
61591;DHT22;71994;52.410;-1.966;2024-03-06T09:22:52;17.30;48.10
61591;DHT22;71994;52.410;-1.966;2024-03-06T09:26:06;17.30;48.10
61591;DHT22;71994;52.410;-1.966;2024-03-06T09:29:12;17.20;48.20
61591;DHT22;71994;52.410;-1.966;2024-03-06T09:32:21;17.10;48.20
61591;DHT22;71994;52.410;-1.966;2024-03-06T09:35:29;17.10;48.30
61591;DHT22;71994;52.410;-1.966;2024-03-06T09:38:36;17.10;48.30
61591;DHT22;71994;52.410;-1.966;2024-03-06T09:41:46;17.00;48.40
61591;DHT22;71994;52.410;-1.966;2024-03-06T09:44:53;17.00;48.40
61591;DHT22;71994;52.410;-1.966;2024-03-06T09:47:59;16.90;48.50
61591;DHT22;71994;52.410;-1.966;2024-03-06T09:51:05;16.90;48.60
61591;DHT22;71994;52.410;-1.966;2024-03-06T09:54:14;16.80;48.70
61591;DHT22;71994;52.410;-1.966;2024-03-06T09:57:23;16.80;48.80
61591;DHT22;71994;52.410;-1.966;2024-03-06T10:00:30;16.80;48.90
61591;DHT22;71994;52.410;-1.966;2024-03-06T10:03:38;16.80;48.90
61591;DHT22;71994;52.410;-1.966;2024-03-06T10:06:49;16.80;48.80
61591;DHT22;71994;52.410;-1.966;2024-03-06T10:09:55;16.80;48.80
61591;DHT22;71994;52.410;-1.966;2024-03-06T10:13:04;16.90;48.90
61591;DHT22;71994;52.410;-1.966;2024-03-06T10:16:11;17.00;48.80
61591;DHT22;71994;52.410;-1.966;2024-03-06T10:19:18;17.10;48.60
61591;DHT22;71994;52.410;-1.966;2024-03-06T10:22:24;17.20;48.50
61591;DHT22;71994;52.410;-1.966;2024-03-06T10:25:31;17.30;48.30
61591;DHT22;71994;52.410;-1.966;2024-03-06T10:28:45;17.40;48.20
61591;DHT22;71994;52.410;-1.966;2024-03-06T10:31:53;17.50;48.00
61591;DHT22;71994;52.410;-1.966;2024-03-06T10:35:04;17.50;48.00
61591;DHT22;71994;52.410;-1.966;2024-03-06T10:38:17;17.60;47.90
61591;DHT22;71994;52.410;-1.966;2024-03-06T10:41:24;17.60;48.00
61591;DHT22;71994;52.410;-1.966;2024-03-06T10:44:36;17.60;48.00
61591;DHT22;71994;52.410;-1.966;2024-03-06T10:47:46;17.50;47.90
61591;DHT22;71994;52.410;-1.966;2024-03-06T10:50:55;17.50;48.10
61591;DHT22;71994;52.410;-1.966;2024-03-06T10:54:07;17.60;48.20
61591;DHT22;71994;52.410;-1.966;2024-03-06T10:57:16;17.50;48.20
61591;DHT22;71994;52.410;-1.966;2024-03-06T11:00:26;17.40;48.10
61591;DHT22;71994;52.410;-1.966;2024-03-06T11:03:32;17.40;48.00
61591;DHT22;71994;52.410;-1.966;2024-03-06T11:06:40;17.40;48.10
61591;DHT22;71994;52.410;-1.966;2024-03-06T11:09:48;17.30;48.10
61591;DHT22;71994;52.410;-1.966;2024-03-06T11:12:54;17.30;48.10
61591;DHT22;71994;52.410;-1.966;2024-03-06T11:16:05;17.30;48.20
61591;DHT22;71994;52.410;-1.966;2024-03-06T11:19:15;17.20;48.20
61591;DHT22;71994;52.410;-1.966;2024-03-06T11:26:02;17.10;48.30
61591;DHT22;71994;52.410;-1.966;2024-03-06T11:29:09;17.10;48.40
61591;DHT22;71994;52.410;-1.966;2024-03-06T11:32:22;17.10;48.50
61591;DHT22;71994;52.410;-1.966;2024-03-06T11:35:28;17.10;48.50
61591;DHT22;71994;52.410;-1.966;2024-03-06T11:38:37;17.10;48.60
61591;DHT22;71994;52.410;-1.966;2024-03-06T11:41:50;17.00;48.60
61591;DHT22;71994;52.410;-1.966;2024-03-06T11:44:57;17.00;48.60
61591;DHT22;71994;52.410;-1.966;2024-03-06T11:48:14;16.90;48.60
61591;DHT22;71994;52.410;-1.966;2024-03-06T11:51:25;16.90;48.70
61591;DHT22;71994;52.410;-1.966;2024-03-06T11:54:36;16.90;48.90
61591;DHT22;71994;52.410;-1.966;2024-03-06T11:57:43;16.90;48.90
61591;DHT22;71994;52.410;-1.966;2024-03-06T12:00:54;16.80;48.80
61591;DHT22;71994;52.410;-1.966;2024-03-06T12:04:04;16.80;48.80
61591;DHT22;71994;52.410;-1.966;2024-03-06T12:07:10;16.80;49.00
61591;DHT22;71994;52.410;-1.966;2024-03-06T12:10:17;16.70;49.20
61591;DHT22;71994;52.410;-1.966;2024-03-06T12:13:24;16.70;49.20
61591;DHT22;71994;52.410;-1.966;2024-03-06T12:16:30;16.80;49.20
61591;DHT22;71994;52.410;-1.966;2024-03-06T12:19:42;16.90;49.50
61591;DHT22;71994;52.410;-1.966;2024-03-06T12:22:49;16.90;50.00
61591;DHT22;71994;52.410;-1.966;2024-03-06T12:26:06;17.00;50.30
61591;DHT22;71994;52.410;-1.966;2024-03-06T12:29:17;17.10;50.60
61591;DHT22;71994;52.410;-1.966;2024-03-06T12:32:27;17.30;50.50
61591;DHT22;71994;52.410;-1.966;2024-03-06T12:35:39;17.40;50.70
61591;DHT22;71994;52.410;-1.966;2024-03-06T12:38:53;17.60;50.60
61591;DHT22;71994;52.410;-1.966;2024-03-06T12:42:03;17.70;50.30
61591;DHT22;71994;52.410;-1.966;2024-03-06T12:45:12;17.80;50.30
61591;DHT22;71994;52.410;-1.966;2024-03-06T12:48:18;17.90;50.20
61591;DHT22;71994;52.410;-1.966;2024-03-06T12:51:28;18.10;50.20
61591;DHT22;71994;52.410;-1.966;2024-03-06T12:54:35;18.10;49.90
61591;DHT22;71994;52.410;-1.966;2024-03-06T12:57:46;18.20;49.60
61591;DHT22;71994;52.410;-1.966;2024-03-06T13:00:53;18.20;49.40
61591;DHT22;71994;52.410;-1.966;2024-03-06T13:04:08;18.30;49.30
61591;DHT22;71994;52.410;-1.966;2024-03-06T13:07:19;18.30;48.80
61591;DHT22;71994;52.410;-1.966;2024-03-06T13:10:25;18.30;48.80
61591;DHT22;71994;52.410;-1.966;2024-03-06T13:13:31;18.20;48.80
61591;DHT22;71994;52.410;-1.966;2024-03-06T13:16:39;18.20;48.70
61591;DHT22;71994;52.410;-1.966;2024-03-06T13:19:46;18.20;48.70
61591;DHT22;71994;52.410;-1.966;2024-03-06T13:22:55;18.10;48.70
61591;DHT22;71994;52.410;-1.966;2024-03-06T13:26:03;18.10;48.70
61591;DHT22;71994;52.410;-1.966;2024-03-06T13:29:10;18.10;48.70
61591;DHT22;71994;52.410;-1.966;2024-03-06T13:32:19;18.10;48.80
61591;DHT22;71994;52.410;-1.966;2024-03-06T13:35:33;18.00;48.70
61591;DHT22;71994;52.410;-1.966;2024-03-06T13:38:42;17.90;48.90
61591;DHT22;71994;52.410;-1.966;2024-03-06T13:41:48;17.90;49.00
61591;DHT22;71994;52.410;-1.966;2024-03-06T13:44:55;17.80;48.90
61591;DHT22;71994;52.410;-1.966;2024-03-06T13:48:14;17.80;49.10
61591;DHT22;71994;52.410;-1.966;2024-03-06T13:51:22;17.80;49.10
61591;DHT22;71994;52.410;-1.966;2024-03-06T13:54:43;17.70;49.10
61591;DHT22;71994;52.410;-1.966;2024-03-06T13:57:52;17.70;49.10
61591;DHT22;71994;52.410;-1.966;2024-03-06T14:00:59;17.70;49.20
61591;DHT22;71994;52.410;-1.966;2024-03-06T14:04:05;17.60;49.20
61591;DHT22;71994;52.410;-1.966;2024-03-06T14:07:12;17.60;49.30
61591;DHT22;71994;52.410;-1.966;2024-03-06T14:10:21;17.60;49.40
61591;DHT22;71994;52.410;-1.966;2024-03-06T14:13:29;17.60;49.50
61591;DHT22;71994;52.410;-1.966;2024-03-06T14:16:36;17.50;49.50
61591;DHT22;71994;52.410;-1.966;2024-03-06T14:19:46;17.50;49.60
61591;DHT22;71994;52.410;-1.966;2024-03-06T14:22:53;17.40;49.70
61591;DHT22;71994;52.410;-1.966;2024-03-06T14:26:02;17.40;49.80
61591;DHT22;71994;52.410;-1.966;2024-03-06T14:29:09;17.30;49.90
61591;DHT22;71994;52.410;-1.966;2024-03-06T14:32:19;17.30;50.00
61591;DHT22;71994;52.410;-1.966;2024-03-06T14:35:25;17.30;50.20
61591;DHT22;71994;52.410;-1.966;2024-03-06T14:38:40;17.30;50.10
61591;DHT22;71994;52.410;-1.966;2024-03-06T14:41:54;17.30;50.20
61591;DHT22;71994;52.410;-1.966;2024-03-06T14:45:04;17.20;50.40
61591;DHT22;71994;52.410;-1.966;2024-03-06T14:48:13;17.20;50.40
61591;DHT22;71994;52.410;-1.966;2024-03-06T14:51:21;17.20;50.40
61591;DHT22;71994;52.410;-1.966;2024-03-06T14:54:28;17.20;50.40
61591;DHT22;71994;52.410;-1.966;2024-03-06T14:57:37;17.10;50.30
61591;DHT22;71994;52.410;-1.966;2024-03-06T15:00:51;17.10;50.40
61591;DHT22;71994;52.410;-1.966;2024-03-06T15:03:58;17.10;50.40
61591;DHT22;71994;52.410;-1.966;2024-03-06T15:07:04;17.10;50.40
61591;DHT22;71994;52.410;-1.966;2024-03-06T15:10:15;17.10;50.40
61591;DHT22;71994;52.410;-1.966;2024-03-06T15:13:29;17.10;50.50
61591;DHT22;71994;52.410;-1.966;2024-03-06T15:16:37;17.00;50.60
61591;DHT22;71994;52.410;-1.966;2024-03-06T15:19:45;17.00;50.70
61591;DHT22;71994;52.410;-1.966;2024-03-06T15:22:54;17.00;50.60
61591;DHT22;71994;52.410;-1.966;2024-03-06T15:26:04;17.00;50.60
61591;DHT22;71994;52.410;-1.966;2024-03-06T15:29:13;17.00;50.60
61591;DHT22;71994;52.410;-1.966;2024-03-06T15:32:22;17.00;50.60
61591;DHT22;71994;52.410;-1.966;2024-03-06T15:35:31;16.90;50.60
61591;DHT22;71994;52.410;-1.966;2024-03-06T15:38:41;16.90;50.60
61591;DHT22;71994;52.410;-1.966;2024-03-06T15:41:53;16.90;50.60
61591;DHT22;71994;52.410;-1.966;2024-03-06T15:45:04;16.90;50.60
61591;DHT22;71994;52.410;-1.966;2024-03-06T15:48:11;16.80;50.60
61591;DHT22;71994;52.410;-1.966;2024-03-06T15:51:18;16.90;50.70
61591;DHT22;71994;52.410;-1.966;2024-03-06T15:54:27;16.80;50.70
61591;DHT22;71994;52.410;-1.966;2024-03-06T15:57:34;16.80;50.70
61591;DHT22;71994;52.410;-1.966;2024-03-06T16:00:44;16.80;50.70
61591;DHT22;71994;52.410;-1.966;2024-03-06T16:03:50;16.70;50.70
61591;DHT22;71994;52.410;-1.966;2024-03-06T16:06:58;16.70;50.70
61591;DHT22;71994;52.410;-1.966;2024-03-06T16:10:05;16.70;50.70
61591;DHT22;71994;52.410;-1.966;2024-03-06T16:13:15;16.70;50.70
61591;DHT22;71994;52.410;-1.966;2024-03-06T16:16:24;16.70;50.70
61591;DHT22;71994;52.410;-1.966;2024-03-06T16:19:32;16.60;50.80
61591;DHT22;71994;52.410;-1.966;2024-03-06T16:22:42;16.70;50.70
61591;DHT22;71994;52.410;-1.966;2024-03-06T16:25:49;16.80;50.70
61591;DHT22;71994;52.410;-1.966;2024-03-06T16:29:03;16.80;50.60
61591;DHT22;71994;52.410;-1.966;2024-03-06T16:32:13;16.80;50.60
61591;DHT22;71994;52.410;-1.966;2024-03-06T16:35:19;16.90;50.50
61591;DHT22;71994;52.410;-1.966;2024-03-06T16:38:28;17.00;50.50
61591;DHT22;71994;52.410;-1.966;2024-03-06T16:41:36;17.10;50.30
61591;DHT22;71994;52.410;-1.966;2024-03-06T16:44:44;17.20;50.10
61591;DHT22;71994;52.410;-1.966;2024-03-06T16:47:57;17.40;49.90
61591;DHT22;71994;52.410;-1.966;2024-03-06T16:51:04;17.50;49.70
61591;DHT22;71994;52.410;-1.966;2024-03-06T16:54:14;17.50;49.50
61591;DHT22;71994;52.410;-1.966;2024-03-06T16:57:21;17.60;49.50
61591;DHT22;71994;52.410;-1.966;2024-03-06T17:00:27;17.60;49.40
61591;DHT22;71994;52.410;-1.966;2024-03-06T17:03:36;17.60;49.30
61591;DHT22;71994;52.410;-1.966;2024-03-06T17:06:43;17.60;49.30
61591;DHT22;71994;52.410;-1.966;2024-03-06T17:09:50;17.60;49.20
61591;DHT22;71994;52.410;-1.966;2024-03-06T17:12:56;17.60;49.20
61591;DHT22;71994;52.410;-1.966;2024-03-06T17:16:05;17.60;49.20
61591;DHT22;71994;52.410;-1.966;2024-03-06T17:19:15;17.60;49.20
61591;DHT22;71994;52.410;-1.966;2024-03-06T17:22:21;17.60;49.30
61591;DHT22;71994;52.410;-1.966;2024-03-06T17:25:28;17.60;49.30
61591;DHT22;71994;52.410;-1.966;2024-03-06T17:28:35;17.50;49.30
61591;DHT22;71994;52.410;-1.966;2024-03-06T17:31:46;17.50;49.30
61591;DHT22;71994;52.410;-1.966;2024-03-06T17:34:55;17.50;49.40
61591;DHT22;71994;52.410;-1.966;2024-03-06T17:38:09;17.40;49.40
61591;DHT22;71994;52.410;-1.966;2024-03-06T17:41:17;17.40;49.40
61591;DHT22;71994;52.410;-1.966;2024-03-06T17:44:26;17.30;49.50
61591;DHT22;71994;52.410;-1.966;2024-03-06T17:47:36;17.40;49.50
61591;DHT22;71994;52.410;-1.966;2024-03-06T17:50:45;17.50;49.50
61591;DHT22;71994;52.410;-1.966;2024-03-06T17:53:52;17.50;49.70
61591;DHT22;71994;52.410;-1.966;2024-03-06T17:56:59;17.60;49.50
61591;DHT22;71994;52.410;-1.966;2024-03-06T18:00:07;17.70;49.60
61591;DHT22;71994;52.410;-1.966;2024-03-06T18:03:16;17.80;50.10
61591;DHT22;71994;52.410;-1.966;2024-03-06T18:06:32;17.90;49.60
61591;DHT22;71994;52.410;-1.966;2024-03-06T18:09:41;18.00;49.50
61591;DHT22;71994;52.410;-1.966;2024-03-06T18:12:51;18.00;50.00
61591;DHT22;71994;52.410;-1.966;2024-03-06T18:16:01;18.10;49.90
61591;DHT22;71994;52.410;-1.966;2024-03-06T18:19:07;18.10;49.80
61591;DHT22;71994;52.410;-1.966;2024-03-06T18:22:18;18.10;49.60
61591;DHT22;71994;52.410;-1.966;2024-03-06T18:25:26;18.10;49.30
61591;DHT22;71994;52.410;-1.966;2024-03-06T18:28:36;18.10;49.40
61591;DHT22;71994;52.410;-1.966;2024-03-06T18:31:42;18.10;49.20
61591;DHT22;71994;52.410;-1.966;2024-03-06T18:34:52;18.00;49.20
61591;DHT22;71994;52.410;-1.966;2024-03-06T18:38:03;18.00;49.50
61591;DHT22;71994;52.410;-1.966;2024-03-06T18:41:16;18.00;49.30
61591;DHT22;71994;52.410;-1.966;2024-03-06T18:44:25;17.90;49.30
61591;DHT22;71994;52.410;-1.966;2024-03-06T18:47:32;17.80;49.40
61591;DHT22;71994;52.410;-1.966;2024-03-06T18:50:38;17.80;49.40
61591;DHT22;71994;52.410;-1.966;2024-03-06T18:53:47;17.90;49.50
61591;DHT22;71994;52.410;-1.966;2024-03-06T18:56:54;17.80;49.50
61591;DHT22;71994;52.410;-1.966;2024-03-06T19:00:02;17.80;49.50
61591;DHT22;71994;52.410;-1.966;2024-03-06T19:03:13;17.80;49.70
61591;DHT22;71994;52.410;-1.966;2024-03-06T19:06:19;17.80;49.80
61591;DHT22;71994;52.410;-1.966;2024-03-06T19:09:29;17.80;49.90
61591;DHT22;71994;52.410;-1.966;2024-03-06T19:12:37;17.80;50.00
61591;DHT22;71994;52.410;-1.966;2024-03-06T19:15:47;17.80;49.90
61591;DHT22;71994;52.410;-1.966;2024-03-06T19:18:54;18.00;49.50
61591;DHT22;71994;52.410;-1.966;2024-03-06T19:22:00;18.10;49.70
61591;DHT22;71994;52.410;-1.966;2024-03-06T19:25:11;18.10;49.50
61591;DHT22;71994;52.410;-1.966;2024-03-06T19:28:20;18.30;49.30
61591;DHT22;71994;52.410;-1.966;2024-03-06T19:31:27;18.40;49.20
61591;DHT22;71994;52.410;-1.966;2024-03-06T19:34:39;18.50;48.90